• Join FlightAware (Why Join?)
  • Login
  • US Flag 
12:01PM EDT


 

Airport Tracker/Info


-or-


 

Live Flight TrackerFlight Track Log ✈ NKS904 ✈ 13-May-2013 ✈ KDFW - KMCO

Flight Track Log - Related Links

Times and Time Zones

All times are in EDT time to prevent confusion due to time zone crossing. See the NKS904 flight status page for this flight to view local times or setup timezone preferences in your user account.

Time Position Orientation Groundspeed Altitude Reporting Facility
EDT Latitude Longitude Course Direction KTS MPH feet Rate Location/Type
12:52PM 32.8400 -97.0290 180° South 206 237 2,300  Level FlightAware
12:53PM 32.8090 -97.0300 182° South 249 287 3,100 2,220 Climbing FlightAware
12:53PM 32.7920 -97.0300 180° South 248 285 4,000 3,420 Climbing FlightAware
12:53PM 32.7640 -97.0300 180° South 252 290 5,400 3,240 Climbing FlightAware
12:54PM 32.7260 -97.0280 177° South 267 307 7,000 3,000 Climbing FlightAware
12:54PM 32.7160 -97.0220 153° Southeast 271 312 7,400 2,580 Climbing FlightAware
12:54PM 32.6990 -96.9960 128° Southeast 287 330 8,300 2,640 Climbing FlightAware
12:55PM 32.6920 -96.9570 102° East 293 337 9,400 1,860 Climbing FlightAware
12:55PM 32.6880 -96.9290 100° East 296 341 9,700 300 Climbing FlightAware
12:56PM 32.6930 -96.8630 85° East 343 395 9,700  Level FlightAware
12:56PM 32.6950 -96.8360 85° East 348 400 9,700  Level FlightAware
12:57PM 32.7050 -96.7810 78° East 350 403 9,700  Level FlightAware
12:57PM 32.7210 -96.7370 67° East 349 402 9,700 1,260 Level FlightAware
12:58PM 32.7500 -96.6560 67° East 352 405 11,200 2,220 Climbing FlightAware
12:58PM 32.7760 -96.5850 66° East 364 419 12,900 2,580 Climbing FlightAware
12:59PM 32.8020 -96.5110 67° East 367 422 14,700 2,880 Climbing FlightAware
01:00PM 32.8270 -96.4400 67° East 354 407 16,800 2,820 Climbing FlightAware
01:00PM 32.8570 -96.3570 67° East 358 412 18,700 2,160 Climbing FlightAware
01:01PM 32.8670 -96.2790 81° East 373 429 19,900 1,680 Climbing FlightAware
01:02PM 32.8680 -96.1840 89° East 390 449 21,100 1,500 Climbing FlightAware
01:03PM 32.8700 -96.0950 88° East 402 463 22,100 1,260 Climbing FlightAware
01:03PM 32.8710 -96.0100 89° East 415 478 22,800 1,380 Climbing FlightAware
01:04PM 32.8730 -95.9050 89° East 420 483 24,100 1,620 Climbing FlightAware
01:05PM 32.8750 -95.8120 89° East 424 488 25,100 1,500 Climbing FlightAware
01:05PM 32.8754 -95.7605 89° East 429 494 25,600 1,380 Climbing FlightAware ADS-B
01:05PM 32.8764 -95.6843 89° East 430 495 26,300 1,140 Climbing FlightAware ADS-B
01:06PM 32.8776 -95.6056 89° East 439 505 26,900 1,260 Climbing FlightAware ADS-B
01:06PM 32.8780 -95.5400 90° East 27,500 1,440 Climbing FlightAware ADS-B
01:07PM 32.8786 -95.5235 88° East 442 509 27,700 1,080 Climbing FlightAware ADS-B
01:07PM 32.8801 -95.4075 89° East 451 519 28,500 960 Climbing FlightAware ADS-B
01:08PM 32.8844 -95.3410 86° East 457 526 28,900 960 Climbing FlightAware ADS-B
01:08PM 32.8982 -95.2540 79° East 461 531 29,500 1,380 Climbing FlightAware ADS-B
01:09PM 32.9102 -95.1752 80° East 452 520 30,500 180 Climbing FlightAware ADS-B
01:10PM 32.9300 -95.0550 79° East 460 529 29,800 1,320 Descending FlightAware
01:10PM 32.9429 -94.9595 81° East 443 510 32,500 2,880 Climbing FlightAware ADS-B
01:11PM 32.9590 -94.8540 80° East 440 506 33,400 1,080 Climbing FlightAware
01:12PM 32.9723 -94.7639 80° East 443 510 34,000 960 Climbing FlightAware ADS-B
01:12PM 32.9836 -94.6877 80° East 443 510 34,500 720 Climbing FlightAware ADS-B
01:13PM 32.9944 -94.6142 80° East 446 513 34,800 660 Climbing FlightAware ADS-B
01:13PM 33.0070 -94.5280 80° East 447 514 35,300 780 Climbing FlightAware ADS-B
01:14PM 33.0179 -94.4536 80° East 445 512 35,700 840 Climbing FlightAware ADS-B
01:15PM 33.0320 -94.3530 80° East 441 507 36,400 960 Climbing FlightAware
01:15PM 33.0351 -94.3356 78° East 442 509 36,500 900 Climbing FlightAware ADS-B
01:15PM 33.0470 -94.2540 80° East 438 504 37,000 360 Climbing FlightAware
01:16PM 33.0610 -94.1580 80° East 449 517 37,000  Level FlightAware
01:17PM 33.0760 -94.0510 80° East 461 531 37,000  Level FlightAware
01:17PM 33.0880 -93.9720 80° East 461 531 37,000  Level FlightAware
01:18PM 33.1116 -93.8026 81° East 462 532 37,000  Level FlightAware ADS-B
01:19PM 33.1241 -93.7140 80° East 463 533 37,000  Level FlightAware ADS-B
01:20PM 33.1409 -93.5945 80° East 462 532 37,000  Level FlightAware ADS-B
01:20PM 33.1520 -93.5141 81° East 463 533 37,000  Level FlightAware ADS-B
01:21PM 33.1734 -93.3597 81° East 464 534 37,000  Level FlightAware ADS-B
01:22PM 33.1839 -93.2833 81° East 466 536 37,000  Level FlightAware ADS-B
01:22PM 33.1947 -93.2032 81° East 467 537 37,000  Level FlightAware ADS-B
01:24PM 33.2180 -93.0300 81° East 468 539 37,000  Level FlightAware
01:24PM 33.2320 -92.9320 80° East 467 537 37,000  Level FlightAware
01:25PM 33.2450 -92.8460 80° East 467 537 37,000  Level FlightAware
01:26PM 33.2570 -92.7590 81° East 467 537 37,000  Level FlightAware
01:26PM 33.2700 -92.6730 80° East 467 537 37,000  Level FlightAware
01:27PM 33.2070 -92.5060 114° Southeast 476 548 37,000  Level FlightAware
01:28PM 33.1870 -92.4010 103° East 476 548 37,000  Level FlightAware
01:28PM 33.1700 -92.3140 103° East 476 548 37,000  Level FlightAware
01:29PM 33.1530 -92.2270 103° East 476 548 37,000  Level FlightAware
01:30PM 33.1360 -92.1390 103° East 476 548 37,000  Level FlightAware
01:31PM 33.1150 -92.0310 103° East 476 548 37,000  Level FlightAware
01:31PM 33.0980 -91.9430 103° East 476 548 37,000  Level FlightAware
01:32PM 33.0810 -91.8560 103° East 476 548 37,000  Level FlightAware
01:33PM 33.0640 -91.7690 103° East 476 548 37,000  Level FlightAware
01:33PM 33.0430 -91.6610 103° East 476 548 37,000  Level FlightAware
01:34PM 33.0260 -91.5740 103° East 476 548 37,000  Level FlightAware
01:35PM 33.0100 -91.4870 102° East 476 548 37,000  Level FlightAware
01:35PM 32.9930 -91.4000 103° East 476 548 37,000  Level FlightAware
01:36PM 32.9720 -91.2910 103° East 476 548 37,000  Level FlightAware
01:37PM 32.9550 -91.2040 103° East 476 548 37,000  Level FlightAware
01:38PM 32.8442 -90.8517 103° East 477 549 37,000  Level Memphis Center
01:39PM 32.8050 -90.6908 106° East 483 556 37,000  Level Memphis Center
01:40PM 32.7678 -90.5353 106° East 488 562 37,000  Level Memphis Center
01:41PM 32.7283 -90.3744 106° East 496 571 37,000  Level Memphis Center
01:42PM 32.6906 -90.2142 106° East 496 571 37,000  Level Memphis Center
01:43PM 32.6506 -90.0539 106° East 496 571 37,000  Level Memphis Center
01:44PM 32.6147 -89.9058 106° East 505 581 37,000  Level Memphis Center
01:45PM 32.5764 -89.7433 106° East 510 587 37,000  Level Memphis Center
01:46PM 32.5358 -89.5786 106° East 510 587 37,000  Level Memphis Center
01:51PM 32.3050 -88.6670 106° East 531 611 37,000  Level FlightAware
01:52PM 32.2740 -88.5440 107° East 533 613 37,000  Level FlightAware
01:52PM 32.2450 -88.4340 107° East 534 615 37,000  Level FlightAware
01:53PM 32.2160 -88.3210 107° East 535 616 37,000  Level FlightAware
01:54PM 32.1830 -88.1950 107° East 536 617 37,000  Level FlightAware
01:55PM 32.1560 -88.0910 107° East 536 617 37,000  Level FlightAware
01:55PM 32.1150 -87.9370 107° East 539 620 37,000  Level FlightAware
01:56PM 32.0840 -87.8190 107° East 539 620 37,000  Level FlightAware
01:57PM 32.0580 -87.7210 107° East 540 621 37,000  Level FlightAware
01:57PM 32.0290 -87.6140 108° East 540 621 37,000  Level FlightAware
01:58PM 32.0050 -87.5180 106° East 540 621 37,000  Level FlightAware
01:59PM 31.9630 -87.3680 108° East 544 626 37,000  Level FlightAware
01:59PM 31.9390 -87.2770 107° East 544 626 37,000  Level FlightAware
02:00PM 31.9140 -87.1810 107° East 544 626 37,000  Level FlightAware
02:01PM 31.8830 -87.0600 107° East 544 626 37,000  Level FlightAware
02:02PM 31.8580 -86.9640 107° East 544 626 37,000  Level FlightAware
02:02PM 31.8330 -86.8670 107° East 544 626 37,000  Level FlightAware
02:03PM 31.8080 -86.7710 107° East 544 626 37,000  Level FlightAware
02:04PM 31.7390 -86.5480 110° East 545 627 37,000  Level FlightAware
02:04PM 31.7120 -86.4520 108° East 545 627 37,000  Level FlightAware
02:05PM 31.6860 -86.3560 108° East 545 627 37,000  Level FlightAware
02:06PM 31.6590 -86.2600 108° East 545 627 37,000  Level FlightAware
02:06PM 31.6330 -86.1640 108° East 545 627 37,000  Level FlightAware
02:07PM 31.5990 -86.0450 109° East 545 627 37,000  Level FlightAware
02:08PM 31.5730 -85.9490 108° East 545 627 37,000  Level FlightAware
02:09PM 31.5460 -85.8530 108° East 545 627 37,000  Level FlightAware
02:09PM 31.5200 -85.7580 108° East 545 627 37,000  Level FlightAware
02:10PM 31.4930 -85.6620 108° East 545 627 37,000  Level FlightAware
02:11PM 31.4670 -85.5660 108° East 545 627 37,000  Level FlightAware
02:11PM 31.4400 -85.4710 108° East 545 627 37,000  Level FlightAware
02:12PM 31.4070 -85.3510 108° East 545 627 37,000  Level FlightAware
02:13PM 31.3810 -85.2560 108° East 545 627 37,000 -120 Level FlightAware
02:13PM 31.2656 -84.8928 108° East 547 629 36,900  Descending Jacksonville Center
02:14PM 31.2139 -84.7169 109° East 553 636 37,000  Climbing Jacksonville Center
02:20PM 30.9160 -83.8160 109° East 549 632 37,100  Climbing FlightAware
02:21PM 30.8390 -83.7020 128° Southeast 548 631 37,100  Level FlightAware
02:21PM 30.7860 -83.6230 128° Southeast 548 631 37,100  Level FlightAware
02:22PM 30.7330 -83.5440 128° Southeast 548 631 37,100  Level FlightAware
02:23PM 30.6660 -83.4450 128° Southeast 548 631 37,100  Level FlightAware
02:23PM 30.6130 -83.3660 128° Southeast 548 631 37,100  Level FlightAware
02:24PM 30.5600 -83.2870 128° Southeast 548 631 37,100  Level FlightAware
02:25PM 30.5070 -83.2080 128° Southeast 548 631 37,100  Level FlightAware
02:25PM 30.4540 -83.1290 128° Southeast 548 631 37,100  Level FlightAware
02:26PM 30.4010 -83.0510 128° Southeast 548 631 37,100  Level FlightAware
02:27PM 30.3350 -82.9520 128° Southeast 548 631 37,100  Level FlightAware
02:28PM 30.2820 -82.8740 128° Southeast 548 631 37,100  Level FlightAware
02:28PM 30.2290 -82.7950 128° Southeast 548 631 37,100  Level FlightAware
02:29PM 30.1760 -82.7160 128° Southeast 548 631 37,100  Level FlightAware
02:30PM 30.1090 -82.6180 128° Southeast 548 631 37,100 -4,860 Level FlightAware
02:31PM 29.7920 -82.3890 148° Southeast 464 534 25,000 -5,040 Descending FlightAware
02:32PM 29.6900 -82.3460 160° South 473 544 24,600 -1,620 Descending FlightAware
02:36PM 29.3170 -82.1530 156° South 435 501 18,400 -1,920 Descending FlightAware
02:36PM 29.2380 -82.1120 156° South 421 484 17,000 -2,100 Descending FlightAware
02:37PM 29.1590 -82.0710 156° South 421 484 15,300 -2,160 Descending FlightAware
02:38PM 29.0710 -82.0260 156° South 409 471 13,400 -1,320 Descending FlightAware
02:39PM 29.0140 -81.9960 155° Southeast 409 471 13,400  Level FlightAware
02:39PM 28.9550 -81.9650 155° Southeast 409 471 13,400 -1,860 Level FlightAware
02:40PM 28.8740 -81.9140 151° Southeast 371 427 10,800 -1,860 Descending FlightAware
02:41PM 28.8340 -81.8450 123° Southeast 367 422 10,800 -420 Level FlightAware
02:41PM 28.8020 -81.7900 124° Southeast 337 388 10,300 -780 Descending FlightAware
02:42PM 28.7760 -81.7460 124° Southeast 327 376 9,900 -900 Descending FlightAware
02:42PM 28.7510 -81.7020 123° Southeast 327 376 9,400 -1,020 Descending FlightAware
02:43PM 28.7310 -81.6680 124° Southeast 310 357 9,000 -660 Descending FlightAware
02:43PM 28.7090 -81.6280 122° Southeast 316 364 8,800 -240 Descending FlightAware
02:44PM 28.6860 -81.5820 120° Southeast 320 368 8,800  Level FlightAware
02:44PM 28.6670 -81.5450 120° Southeast 316 364 8,800  Level FlightAware
02:45PM 28.6440 -81.5020 121° Southeast 314 361 8,800  Level FlightAware
02:45PM 28.6330 -81.4810 121° Southeast 315 362 8,800  Level FlightAware
02:45PM 28.6140 -81.4450 121° Southeast 314 361 8,800  Level FlightAware
02:45PM 28.6040 -81.4330 134° Southeast 307 353 8,800  Level FlightAware
02:46PM 28.5790 -81.4240 162° South 279 321 8,800  Level FlightAware
02:46PM 28.5470 -81.4240 180° South 259 298 8,800 -600 Level FlightAware
02:47PM 28.4960 -81.4240 180° South 242 278 8,100 -960 Descending FlightAware
02:47PM 28.4680 -81.4240 180° South 229 264 7,700 -1,080 Descending FlightAware
02:48PM 28.4510 -81.4240 180° South 228 262 7,400 -1,620 Descending FlightAware
02:48PM 28.4180 -81.4240 180° South 227 261 6,500 -1,800 Descending FlightAware
02:49PM 28.3920 -81.4240 180° South 239 275 5,800 -1,680 Descending FlightAware
02:49PM 28.3570 -81.4240 180° South 242 278 5,000 -1,320 Descending FlightAware
02:49PM 28.3290 -81.4240 180° South 240 276 4,600 -1,140 Descending FlightAware
02:50PM 28.2960 -81.4220 177° South 231 266 4,000 -1,200 Descending FlightAware
02:50PM 28.2820 -81.4130 150° Southeast 242 278 3,700 -1,200 Descending FlightAware
02:50PM 28.2740 -81.3950 117° Southeast 239 275 3,400 -960 Descending FlightAware
02:51PM 28.2730 -81.3830 95° East 232 267 3,300 -1,380 Descending FlightAware
02:51PM 28.2750 -81.3480 86° East 225 259 2,500 -1,620 Descending FlightAware
02:51PM 28.2820 -81.3330 62° Northeast 218 251 2,100 -1,440 Descending FlightAware
02:52PM 28.2940 -81.3230 36° Northeast 211 243 1,800 -780 Descending FlightAware
02:52PM 28.3170 -81.3240 358° North 199 229 1,600 -480 Descending FlightAware
02:52PM 28.3300 -81.3260 352° North 183 211 1,500 -240 Descending FlightAware
02:52PM 28.3400 -81.3250 North 176 203 1,500 -600 Level FlightAware
02:53PM 28.3620 -81.3260 358° North 145 167 1,100 -720 Descending FlightAware
02:53PM 28.3810 -81.3260 360° North 130 150 800 -840 Descending FlightAware
02:54PM 28.4000 -81.3270 357° North 127 146 300 -1,020 Descending FlightAware
02:54PM 28.4150 -81.3270 360° North 127 146 -720 Descending FlightAware
02:55PM 28.4220 -81.3270 360° North 134 154  Level FlightAware